Aéroport int. Stanfield de Halifax, Nouvelle Écosse

Conditions des dernières 24 heures

Date / Heure
(HAA)
Conditions Temp
(°C)
Humidité
(%)
Point de rosée
(°C)
Vent
(km/h)
Pression
(kPa)
Visibilité
(km)
20 octobre 2014
5:00 Pluie faible 4   95 3 NO 28 rafale 43 100,1 8
4:00 Pluie faible 5 95 4 NO 40 100,1 8
3:00 Pluie faible 6 96 5 NO 32 rafale 47 100,0 8
2:00 Pluie faible 6 95 6 NO 36 rafale 45 100,0 8
1:00 Pluie faible 8 96 7 NO 34 rafale 46 100,0 8
0:00 Pluie faible 10 97 9 NNO 27 rafale 37 99,9 8
19 octobre 2014
23:00 Pluie faible 11 98 11 N 13 100,0 6
22:00 Pluie 11 97 11 NO 11 100,2 2
21:00 Pluie faible 12 95 12 NNE 13 100,3 8
20:00 Faible averse de pluie 13 95 12 SE 9 100,3 24
19:00 Généralement nuageux 14 90 12 SSE 7 100,4 24
18:00 Généralement nuageux 14 87 12 SSO 9 100,4 24
17:00 Généralement nuageux 15 84 12 SO 14 100,3 24
16:00 Généralement nuageux 16 79 12 SSO 15 100,3 24
15:00 Généralement nuageux 17 67 11 SO 22 100,3 24
14:00 Généralement nuageux 17 68 11 OSO 20 100,2 24
13:00 Généralement nuageux 18   64 11 SO 26 100,3 24
12:00 Généralement nuageux 17 74 12 SO 29 100,3 24
11:00 Généralement nuageux 16 86 14 SO 19 rafale 32 100,3 24
10:00 Généralement nuageux 15 91 14 SSO 15 100,2 24
9:00 Partiellement nuageux 15 93 14 SSO 19 100,2 24
8:00 Brume 15 97 14 S 13 100,1 10
7:00 Brume 14 97 14 S 15 100,1 6
6:00 Brume 14 99 14 SSO 19 rafale 31 100,1 3
5:00 Brume 14 99 14 S 11 100,0 2
N.D. non disponible
↑ température la plus haute
↓ température la plus basse

Si vous désirez plus de données historiques sur les conditions météo, s.v.p. visitez Données climatologiques en ligne.

Date de modification :